sensor_id;sensor_type;location;lat;lon;timestamp;P1;durP1;ratioP1;P2;durP2;ratioP2
60211;SDS011;46079;48.686;15.598;2023-05-07T00:01:47;5.72;;;2.00;;
60211;SDS011;46079;48.686;15.598;2023-05-07T00:04:12;6.00;;;2.10;;
60211;SDS011;46079;48.686;15.598;2023-05-07T00:06:38;5.55;;;2.00;;
60211;SDS011;46079;48.686;15.598;2023-05-07T00:09:04;5.60;;;2.08;;
60211;SDS011;46079;48.686;15.598;2023-05-07T00:11:29;6.53;;;2.22;;
60211;SDS011;46079;48.686;15.598;2023-05-07T00:13:54;6.10;;;2.15;;
60211;SDS011;46079;48.686;15.598;2023-05-07T00:16:20;6.95;;;2.53;;
60211;SDS011;46079;48.686;15.598;2023-05-07T00:18:45;6.13;;;2.28;;
60211;SDS011;46079;48.686;15.598;2023-05-07T00:21:11;6.00;;;2.08;;
60211;SDS011;46079;48.686;15.598;2023-05-07T00:23:36;6.05;;;1.95;;
60211;SDS011;46079;48.686;15.598;2023-05-07T00:26:02;6.10;;;2.22;;
60211;SDS011;46079;48.686;15.598;2023-05-07T00:28:28;6.88;;;2.40;;
60211;SDS011;46079;48.686;15.598;2023-05-07T00:30:53;6.57;;;2.25;;
60211;SDS011;46079;48.686;15.598;2023-05-07T00:33:19;7.18;;;2.30;;
60211;SDS011;46079;48.686;15.598;2023-05-07T00:35:45;5.75;;;2.03;;
60211;SDS011;46079;48.686;15.598;2023-05-07T00:38:11;6.57;;;2.20;;
60211;SDS011;46079;48.686;15.598;2023-05-07T00:40:36;6.20;;;2.35;;
60211;SDS011;46079;48.686;15.598;2023-05-07T00:43:01;6.18;;;2.33;;
60211;SDS011;46079;48.686;15.598;2023-05-07T00:45:27;6.72;;;2.40;;
60211;SDS011;46079;48.686;15.598;2023-05-07T00:47:57;5.93;;;2.13;;
60211;SDS011;46079;48.686;15.598;2023-05-07T00:50:24;6.70;;;2.33;;
60211;SDS011;46079;48.686;15.598;2023-05-07T00:52:50;6.20;;;2.13;;
60211;SDS011;46079;48.686;15.598;2023-05-07T00:55:16;5.88;;;2.13;;
60211;SDS011;46079;48.686;15.598;2023-05-07T00:57:41;6.13;;;2.05;;
60211;SDS011;46079;48.686;15.598;2023-05-07T01:00:08;6.40;;;2.10;;
60211;SDS011;46079;48.686;15.598;2023-05-07T01:02:35;6.53;;;2.20;;
60211;SDS011;46079;48.686;15.598;2023-05-07T01:05:01;5.95;;;2.13;;
60211;SDS011;46079;48.686;15.598;2023-05-07T01:07:31;6.10;;;2.05;;
60211;SDS011;46079;48.686;15.598;2023-05-07T01:09:57;6.93;;;2.40;;
60211;SDS011;46079;48.686;15.598;2023-05-07T01:12:23;6.25;;;2.10;;
60211;SDS011;46079;48.686;15.598;2023-05-07T01:14:50;6.07;;;2.08;;
60211;SDS011;46079;48.686;15.598;2023-05-07T01:17:16;6.05;;;2.20;;
60211;SDS011;46079;48.686;15.598;2023-05-07T01:19:42;6.60;;;2.13;;
60211;SDS011;46079;48.686;15.598;2023-05-07T01:22:09;5.10;;;2.03;;
60211;SDS011;46079;48.686;15.598;2023-05-07T01:24:39;6.53;;;2.30;;
60211;SDS011;46079;48.686;15.598;2023-05-07T01:27:05;6.13;;;2.20;;
60211;SDS011;46079;48.686;15.598;2023-05-07T01:29:30;5.97;;;2.10;;
60211;SDS011;46079;48.686;15.598;2023-05-07T01:31:57;6.60;;;2.20;;
60211;SDS011;46079;48.686;15.598;2023-05-07T01:34:25;6.72;;;2.05;;
60211;SDS011;46079;48.686;15.598;2023-05-07T01:36:53;6.05;;;2.22;;
60211;SDS011;46079;48.686;15.598;2023-05-07T01:39:29;5.88;;;1.98;;
60211;SDS011;46079;48.686;15.598;2023-05-07T01:41:56;6.13;;;2.05;;
60211;SDS011;46079;48.686;15.598;2023-05-07T01:44:24;6.25;;;2.03;;
60211;SDS011;46079;48.686;15.598;2023-05-07T01:46:51;5.30;;;1.92;;
60211;SDS011;46079;48.686;15.598;2023-05-07T01:49:16;6.35;;;2.20;;
60211;SDS011;46079;48.686;15.598;2023-05-07T01:51:42;6.25;;;2.13;;
60211;SDS011;46079;48.686;15.598;2023-05-07T01:54:08;5.57;;;2.00;;
60211;SDS011;46079;48.686;15.598;2023-05-07T01:56:34;6.28;;;2.22;;
60211;SDS011;46079;48.686;15.598;2023-05-07T01:59:00;5.65;;;2.00;;
60211;SDS011;46079;48.686;15.598;2023-05-07T02:01:25;5.68;;;2.05;;
60211;SDS011;46079;48.686;15.598;2023-05-07T02:03:50;6.13;;;2.10;;
60211;SDS011;46079;48.686;15.598;2023-05-07T02:06:16;5.97;;;2.00;;
60211;SDS011;46079;48.686;15.598;2023-05-07T02:08:41;6.10;;;2.03;;
60211;SDS011;46079;48.686;15.598;2023-05-07T02:11:07;5.78;;;2.00;;
60211;SDS011;46079;48.686;15.598;2023-05-07T02:13:33;6.18;;;2.08;;
60211;SDS011;46079;48.686;15.598;2023-05-07T02:15:59;6.07;;;2.00;;
60211;SDS011;46079;48.686;15.598;2023-05-07T02:18:25;5.80;;;2.10;;
60211;SDS011;46079;48.686;15.598;2023-05-07T02:20:51;5.47;;;1.90;;
60211;SDS011;46079;48.686;15.598;2023-05-07T02:23:16;5.70;;;1.90;;
60211;SDS011;46079;48.686;15.598;2023-05-07T02:25:44;5.72;;;1.98;;
60211;SDS011;46079;48.686;15.598;2023-05-07T02:28:11;5.78;;;2.00;;
60211;SDS011;46079;48.686;15.598;2023-05-07T02:30:36;6.32;;;2.00;;
60211;SDS011;46079;48.686;15.598;2023-05-07T02:33:02;5.72;;;2.08;;
60211;SDS011;46079;48.686;15.598;2023-05-07T02:35:28;6.72;;;2.15;;
60211;SDS011;46079;48.686;15.598;2023-05-07T02:37:53;6.68;;;2.30;;
60211;SDS011;46079;48.686;15.598;2023-05-07T02:40:18;5.50;;;1.92;;
60211;SDS011;46079;48.686;15.598;2023-05-07T02:42:44;6.20;;;2.03;;
60211;SDS011;46079;48.686;15.598;2023-05-07T02:45:09;5.95;;;2.20;;
60211;SDS011;46079;48.686;15.598;2023-05-07T02:47:35;5.45;;;1.70;;
60211;SDS011;46079;48.686;15.598;2023-05-07T02:50:00;6.55;;;2.05;;
60211;SDS011;46079;48.686;15.598;2023-05-07T02:52:26;6.10;;;2.10;;
60211;SDS011;46079;48.686;15.598;2023-05-07T02:54:51;5.78;;;2.10;;
60211;SDS011;46079;48.686;15.598;2023-05-07T02:57:18;6.80;;;2.10;;
60211;SDS011;46079;48.686;15.598;2023-05-07T02:59:43;6.60;;;2.03;;
60211;SDS011;46079;48.686;15.598;2023-05-07T03:02:09;5.20;;;1.73;;
60211;SDS011;46079;48.686;15.598;2023-05-07T03:04:34;5.68;;;2.00;;
60211;SDS011;46079;48.686;15.598;2023-05-07T03:07:00;6.40;;;2.03;;
60211;SDS011;46079;48.686;15.598;2023-05-07T03:09:25;6.18;;;2.08;;
60211;SDS011;46079;48.686;15.598;2023-05-07T03:11:51;6.35;;;2.10;;
60211;SDS011;46079;48.686;15.598;2023-05-07T03:14:16;6.68;;;2.15;;
60211;SDS011;46079;48.686;15.598;2023-05-07T03:16:42;5.47;;;2.00;;
60211;SDS011;46079;48.686;15.598;2023-05-07T03:19:07;5.50;;;2.03;;
60211;SDS011;46079;48.686;15.598;2023-05-07T03:21:32;6.20;;;2.10;;
60211;SDS011;46079;48.686;15.598;2023-05-07T03:23:59;5.35;;;1.77;;
60211;SDS011;46079;48.686;15.598;2023-05-07T03:26:25;5.53;;;1.80;;
60211;SDS011;46079;48.686;15.598;2023-05-07T03:28:50;6.00;;;2.00;;
60211;SDS011;46079;48.686;15.598;2023-05-07T03:31:16;6.15;;;1.88;;
60211;SDS011;46079;48.686;15.598;2023-05-07T03:33:55;5.70;;;2.00;;
60211;SDS011;46079;48.686;15.598;2023-05-07T03:36:22;4.75;;;1.70;;
60211;SDS011;46079;48.686;15.598;2023-05-07T03:38:48;5.35;;;1.95;;
60211;SDS011;46079;48.686;15.598;2023-05-07T03:41:14;5.05;;;1.77;;
60211;SDS011;46079;48.686;15.598;2023-05-07T03:43:40;5.35;;;1.90;;
60211;SDS011;46079;48.686;15.598;2023-05-07T03:46:05;5.70;;;1.90;;
60211;SDS011;46079;48.686;15.598;2023-05-07T03:48:31;5.80;;;1.88;;
60211;SDS011;46079;48.686;15.598;2023-05-07T03:50:59;6.22;;;1.98;;
60211;SDS011;46079;48.686;15.598;2023-05-07T03:53:24;5.55;;;1.85;;
60211;SDS011;46079;48.686;15.598;2023-05-07T03:55:50;5.70;;;2.00;;
60211;SDS011;46079;48.686;15.598;2023-05-07T03:58:15;6.57;;;1.95;;
60211;SDS011;46079;48.686;15.598;2023-05-07T04:00:41;5.43;;;2.03;;
60211;SDS011;46079;48.686;15.598;2023-05-07T04:03:07;5.65;;;1.95;;
60211;SDS011;46079;48.686;15.598;2023-05-07T04:05:32;5.82;;;1.80;;
60211;SDS011;46079;48.686;15.598;2023-05-07T04:07:58;5.85;;;1.95;;
60211;SDS011;46079;48.686;15.598;2023-05-07T04:10:24;6.60;;;2.08;;
60211;SDS011;46079;48.686;15.598;2023-05-07T04:12:49;6.13;;;1.90;;
60211;SDS011;46079;48.686;15.598;2023-05-07T04:15:15;5.25;;;1.88;;
60211;SDS011;46079;48.686;15.598;2023-05-07T04:17:40;6.20;;;1.90;;
60211;SDS011;46079;48.686;15.598;2023-05-07T04:20:08;6.22;;;2.03;;
60211;SDS011;46079;48.686;15.598;2023-05-07T04:22:35;5.03;;;1.80;;
60211;SDS011;46079;48.686;15.598;2023-05-07T04:25:01;4.88;;;1.80;;
60211;SDS011;46079;48.686;15.598;2023-05-07T04:27:27;5.78;;;1.95;;
60211;SDS011;46079;48.686;15.598;2023-05-07T04:29:53;6.20;;;2.05;;
60211;SDS011;46079;48.686;15.598;2023-05-07T04:32:24;5.60;;;1.77;;
60211;SDS011;46079;48.686;15.598;2023-05-07T04:34:50;4.68;;;1.70;;
60211;SDS011;46079;48.686;15.598;2023-05-07T04:37:15;5.15;;;1.83;;
60211;SDS011;46079;48.686;15.598;2023-05-07T04:39:41;4.95;;;1.80;;
60211;SDS011;46079;48.686;15.598;2023-05-07T04:42:06;5.63;;;1.90;;
60211;SDS011;46079;48.686;15.598;2023-05-07T04:44:33;6.57;;;2.10;;
60211;SDS011;46079;48.686;15.598;2023-05-07T04:46:59;5.82;;;1.90;;
60211;SDS011;46079;48.686;15.598;2023-05-07T04:49:25;5.88;;;1.75;;
60211;SDS011;46079;48.686;15.598;2023-05-07T04:51:50;6.25;;;1.90;;
60211;SDS011;46079;48.686;15.598;2023-05-07T04:54:16;4.90;;;1.88;;
60211;SDS011;46079;48.686;15.598;2023-05-07T04:56:41;6.60;;;1.90;;
60211;SDS011;46079;48.686;15.598;2023-05-07T04:59:06;6.07;;;2.05;;
60211;SDS011;46079;48.686;15.598;2023-05-07T05:01:33;5.63;;;1.75;;
60211;SDS011;46079;48.686;15.598;2023-05-07T05:03:58;5.22;;;1.75;;
60211;SDS011;46079;48.686;15.598;2023-05-07T05:06:25;5.57;;;1.98;;
60211;SDS011;46079;48.686;15.598;2023-05-07T05:08:50;5.40;;;1.90;;
60211;SDS011;46079;48.686;15.598;2023-05-07T05:11:15;5.85;;;1.95;;
60211;SDS011;46079;48.686;15.598;2023-05-07T05:13:41;5.72;;;2.00;;
60211;SDS011;46079;48.686;15.598;2023-05-07T05:16:06;5.65;;;2.08;;
60211;SDS011;46079;48.686;15.598;2023-05-07T05:18:32;5.72;;;1.88;;
60211;SDS011;46079;48.686;15.598;2023-05-07T05:20:57;4.97;;;2.17;;
60211;SDS011;46079;48.686;15.598;2023-05-07T05:23:23;5.63;;;1.90;;
60211;SDS011;46079;48.686;15.598;2023-05-07T05:25:48;4.80;;;1.70;;
60211;SDS011;46079;48.686;15.598;2023-05-07T05:28:14;5.45;;;1.90;;
60211;SDS011;46079;48.686;15.598;2023-05-07T05:30:39;6.32;;;2.05;;
60211;SDS011;46079;48.686;15.598;2023-05-07T05:33:05;5.50;;;1.90;;
60211;SDS011;46079;48.686;15.598;2023-05-07T05:35:30;6.05;;;2.00;;
60211;SDS011;46079;48.686;15.598;2023-05-07T05:37:56;6.57;;;2.10;;
60211;SDS011;46079;48.686;15.598;2023-05-07T05:40:22;5.93;;;1.90;;
60211;SDS011;46079;48.686;15.598;2023-05-07T05:42:47;6.13;;;2.10;;
60211;SDS011;46079;48.686;15.598;2023-05-07T05:45:12;4.93;;;1.77;;
60211;SDS011;46079;48.686;15.598;2023-05-07T05:47:38;6.28;;;2.00;;
60211;SDS011;46079;48.686;15.598;2023-05-07T05:50:05;6.72;;;2.03;;
60211;SDS011;46079;48.686;15.598;2023-05-07T05:52:31;5.43;;;1.88;;
60211;SDS011;46079;48.686;15.598;2023-05-07T05:54:56;5.75;;;1.95;;
60211;SDS011;46079;48.686;15.598;2023-05-07T05:57:22;6.28;;;2.00;;
60211;SDS011;46079;48.686;15.598;2023-05-07T05:59:48;5.40;;;1.90;;
60211;SDS011;46079;48.686;15.598;2023-05-07T06:02:14;6.30;;;2.10;;
60211;SDS011;46079;48.686;15.598;2023-05-07T06:04:39;6.05;;;2.03;;
60211;SDS011;46079;48.686;15.598;2023-05-07T06:07:05;5.88;;;1.90;;
60211;SDS011;46079;48.686;15.598;2023-05-07T06:09:30;6.30;;;2.20;;
60211;SDS011;46079;48.686;15.598;2023-05-07T06:11:56;5.20;;;1.90;;
60211;SDS011;46079;48.686;15.598;2023-05-07T06:14:21;5.93;;;1.95;;
60211;SDS011;46079;48.686;15.598;2023-05-07T06:16:47;5.78;;;1.90;;
60211;SDS011;46079;48.686;15.598;2023-05-07T06:19:12;5.30;;;1.85;;
60211;SDS011;46079;48.686;15.598;2023-05-07T06:21:38;5.55;;;1.85;;
60211;SDS011;46079;48.686;15.598;2023-05-07T06:24:04;5.72;;;1.80;;
60211;SDS011;46079;48.686;15.598;2023-05-07T06:26:29;7.13;;;2.05;;
60211;SDS011;46079;48.686;15.598;2023-05-07T06:28:55;5.05;;;1.80;;
60211;SDS011;46079;48.686;15.598;2023-05-07T06:31:20;6.20;;;2.03;;
60211;SDS011;46079;48.686;15.598;2023-05-07T06:33:46;5.30;;;1.90;;
60211;SDS011;46079;48.686;15.598;2023-05-07T06:36:12;5.47;;;1.98;;
60211;SDS011;46079;48.686;15.598;2023-05-07T06:38:37;6.22;;;2.17;;
60211;SDS011;46079;48.686;15.598;2023-05-07T06:41:05;7.88;;;3.65;;
60211;SDS011;46079;48.686;15.598;2023-05-07T06:43:31;9.70;;;4.70;;
60211;SDS011;46079;48.686;15.598;2023-05-07T06:45:56;11.98;;;6.20;;
60211;SDS011;46079;48.686;15.598;2023-05-07T06:48:22;11.43;;;6.03;;
60211;SDS011;46079;48.686;15.598;2023-05-07T06:50:47;11.80;;;6.70;;
60211;SDS011;46079;48.686;15.598;2023-05-07T06:53:12;10.73;;;6.30;;
60211;SDS011;46079;48.686;15.598;2023-05-07T06:55:38;11.65;;;6.85;;
60211;SDS011;46079;48.686;15.598;2023-05-07T06:58:03;13.18;;;7.20;;
60211;SDS011;46079;48.686;15.598;2023-05-07T07:00:29;11.80;;;6.85;;
60211;SDS011;46079;48.686;15.598;2023-05-07T07:02:55;13.43;;;7.57;;
60211;SDS011;46079;48.686;15.598;2023-05-07T07:05:21;11.05;;;6.30;;
60211;SDS011;46079;48.686;15.598;2023-05-07T07:07:46;11.00;;;6.22;;
60211;SDS011;46079;48.686;15.598;2023-05-07T07:10:18;13.40;;;6.82;;
60211;SDS011;46079;48.686;15.598;2023-05-07T07:12:45;12.43;;;6.97;;
60211;SDS011;46079;48.686;15.598;2023-05-07T07:15:10;12.57;;;7.13;;
60211;SDS011;46079;48.686;15.598;2023-05-07T07:17:36;12.00;;;7.15;;
60211;SDS011;46079;48.686;15.598;2023-05-07T07:20:01;12.25;;;6.03;;
60211;SDS011;46079;48.686;15.598;2023-05-07T07:22:27;12.20;;;7.35;;
60211;SDS011;46079;48.686;15.598;2023-05-07T07:24:53;11.85;;;7.13;;
60211;SDS011;46079;48.686;15.598;2023-05-07T07:27:19;12.50;;;7.43;;
60211;SDS011;46079;48.686;15.598;2023-05-07T07:29:47;12.77;;;7.53;;
60211;SDS011;46079;48.686;15.598;2023-05-07T07:32:12;12.05;;;7.47;;
60211;SDS011;46079;48.686;15.598;2023-05-07T07:34:38;12.77;;;7.72;;
60211;SDS011;46079;48.686;15.598;2023-05-07T07:37:03;12.85;;;7.20;;
60211;SDS011;46079;48.686;15.598;2023-05-07T07:39:31;13.02;;;8.00;;
60211;SDS011;46079;48.686;15.598;2023-05-07T07:41:57;13.45;;;8.15;;
60211;SDS011;46079;48.686;15.598;2023-05-07T07:44:22;12.50;;;7.20;;
60211;SDS011;46079;48.686;15.598;2023-05-07T07:46:48;13.10;;;7.75;;
60211;SDS011;46079;48.686;15.598;2023-05-07T07:49:14;12.60;;;6.97;;
60211;SDS011;46079;48.686;15.598;2023-05-07T07:51:39;12.00;;;6.85;;
60211;SDS011;46079;48.686;15.598;2023-05-07T07:54:05;11.80;;;6.75;;
60211;SDS011;46079;48.686;15.598;2023-05-07T07:56:31;11.63;;;6.68;;
60211;SDS011;46079;48.686;15.598;2023-05-07T07:58:58;11.73;;;6.35;;
60211;SDS011;46079;48.686;15.598;2023-05-07T08:01:24;11.95;;;5.95;;
60211;SDS011;46079;48.686;15.598;2023-05-07T08:03:49;11.88;;;7.55;;
60211;SDS011;46079;48.686;15.598;2023-05-07T08:06:15;13.07;;;7.57;;
60211;SDS011;46079;48.686;15.598;2023-05-07T08:08:41;14.15;;;7.30;;
60211;SDS011;46079;48.686;15.598;2023-05-07T08:11:06;11.65;;;6.65;;
60211;SDS011;46079;48.686;15.598;2023-05-07T08:13:31;11.52;;;6.50;;
60211;SDS011;46079;48.686;15.598;2023-05-07T08:15:57;11.88;;;6.47;;
60211;SDS011;46079;48.686;15.598;2023-05-07T08:18:22;11.60;;;5.75;;
60211;SDS011;46079;48.686;15.598;2023-05-07T08:20:49;11.95;;;7.20;;
60211;SDS011;46079;48.686;15.598;2023-05-07T08:23:15;10.55;;;5.68;;
60211;SDS011;46079;48.686;15.598;2023-05-07T08:25:40;10.43;;;5.88;;
60211;SDS011;46079;48.686;15.598;2023-05-07T08:28:07;11.27;;;6.38;;
60211;SDS011;46079;48.686;15.598;2023-05-07T08:30:33;11.98;;;6.25;;
60211;SDS011;46079;48.686;15.598;2023-05-07T08:32:59;10.18;;;5.88;;
60211;SDS011;46079;48.686;15.598;2023-05-07T08:35:25;9.57;;;5.03;;
60211;SDS011;46079;48.686;15.598;2023-05-07T08:37:52;11.98;;;6.78;;
60211;SDS011;46079;48.686;15.598;2023-05-07T08:40:17;12.25;;;6.53;;
60211;SDS011;46079;48.686;15.598;2023-05-07T08:42:43;11.38;;;6.07;;
60211;SDS011;46079;48.686;15.598;2023-05-07T08:45:09;11.27;;;5.20;;
60211;SDS011;46079;48.686;15.598;2023-05-07T08:47:39;10.35;;;4.53;;
60211;SDS011;46079;48.686;15.598;2023-05-07T08:50:09;10.93;;;5.72;;
60211;SDS011;46079;48.686;15.598;2023-05-07T08:52:35;11.13;;;6.03;;
60211;SDS011;46079;48.686;15.598;2023-05-07T08:55:02;12.00;;;6.57;;
60211;SDS011;46079;48.686;15.598;2023-05-07T08:57:28;12.10;;;6.22;;
60211;SDS011;46079;48.686;15.598;2023-05-07T08:59:53;13.68;;;7.70;;
60211;SDS011;46079;48.686;15.598;2023-05-07T09:02:19;12.20;;;6.68;;
60211;SDS011;46079;48.686;15.598;2023-05-07T09:04:44;11.77;;;6.32;;
60211;SDS011;46079;48.686;15.598;2023-05-07T09:07:09;11.10;;;5.63;;
60211;SDS011;46079;48.686;15.598;2023-05-07T09:09:35;10.50;;;5.78;;
60211;SDS011;46079;48.686;15.598;2023-05-07T09:12:00;11.05;;;5.80;;
60211;SDS011;46079;48.686;15.598;2023-05-07T09:14:27;11.15;;;5.45;;
60211;SDS011;46079;48.686;15.598;2023-05-07T09:16:53;10.27;;;5.07;;
60211;SDS011;46079;48.686;15.598;2023-05-07T09:19:22;10.68;;;5.10;;
60211;SDS011;46079;48.686;15.598;2023-05-07T09:21:49;10.30;;;5.40;;
60211;SDS011;46079;48.686;15.598;2023-05-07T09:24:17;9.80;;;5.13;;
60211;SDS011;46079;48.686;15.598;2023-05-07T09:26:42;10.05;;;5.20;;
60211;SDS011;46079;48.686;15.598;2023-05-07T09:29:09;9.82;;;5.30;;
60211;SDS011;46079;48.686;15.598;2023-05-07T09:31:38;10.35;;;5.50;;
60211;SDS011;46079;48.686;15.598;2023-05-07T09:34:06;9.32;;;5.05;;
60211;SDS011;46079;48.686;15.598;2023-05-07T09:36:33;9.25;;;4.90;;
60211;SDS011;46079;48.686;15.598;2023-05-07T09:39:01;9.95;;;5.05;;
60211;SDS011;46079;48.686;15.598;2023-05-07T09:41:27;9.68;;;5.20;;
60211;SDS011;46079;48.686;15.598;2023-05-07T09:43:55;9.70;;;5.15;;
60211;SDS011;46079;48.686;15.598;2023-05-07T09:46:24;9.75;;;4.63;;
60211;SDS011;46079;48.686;15.598;2023-05-07T09:48:53;9.05;;;4.95;;
60211;SDS011;46079;48.686;15.598;2023-05-07T09:51:29;10.00;;;5.13;;
60211;SDS011;46079;48.686;15.598;2023-05-07T09:54:03;9.90;;;5.20;;
60211;SDS011;46079;48.686;15.598;2023-05-07T09:56:29;9.43;;;4.90;;
60211;SDS011;46079;48.686;15.598;2023-05-07T09:58:57;10.38;;;5.20;;
60211;SDS011;46079;48.686;15.598;2023-05-07T10:01:25;9.73;;;5.15;;
60211;SDS011;46079;48.686;15.598;2023-05-07T10:03:52;10.23;;;5.40;;
60211;SDS011;46079;48.686;15.598;2023-05-07T10:06:19;9.95;;;4.78;;
60211;SDS011;46079;48.686;15.598;2023-05-07T10:08:45;9.93;;;5.40;;
60211;SDS011;46079;48.686;15.598;2023-05-07T10:11:11;12.15;;;4.95;;
60211;SDS011;46079;48.686;15.598;2023-05-07T10:13:37;9.98;;;5.15;;
60211;SDS011;46079;48.686;15.598;2023-05-07T10:16:03;10.10;;;5.22;;
60211;SDS011;46079;48.686;15.598;2023-05-07T10:18:30;11.07;;;5.10;;
60211;SDS011;46079;48.686;15.598;2023-05-07T10:23:33;11.38;;;5.30;;
60211;SDS011;46079;48.686;15.598;2023-05-07T10:26:00;11.05;;;4.95;;
60211;SDS011;46079;48.686;15.598;2023-05-07T10:28:28;12.65;;;5.43;;
60211;SDS011;46079;48.686;15.598;2023-05-07T10:34:02;12.02;;;5.30;;
60211;SDS011;46079;48.686;15.598;2023-05-07T10:36:33;14.20;;;5.72;;
60211;SDS011;46079;48.686;15.598;2023-05-07T10:38:59;14.02;;;5.07;;
60211;SDS011;46079;48.686;15.598;2023-05-07T10:41:25;11.25;;;5.13;;
60211;SDS011;46079;48.686;15.598;2023-05-07T10:43:50;13.45;;;5.88;;
60211;SDS011;46079;48.686;15.598;2023-05-07T10:46:16;12.35;;;5.53;;
60211;SDS011;46079;48.686;15.598;2023-05-07T10:51:31;11.80;;;5.32;;
60211;SDS011;46079;48.686;15.598;2023-05-07T10:56:38;13.75;;;6.10;;
60211;SDS011;46079;48.686;15.598;2023-05-07T11:04:23;14.63;;;6.18;;
60211;SDS011;46079;48.686;15.598;2023-05-07T11:12:16;15.45;;;5.72;;
60211;SDS011;46079;48.686;15.598;2023-05-07T11:17:08;14.25;;;6.10;;
60211;SDS011;46079;48.686;15.598;2023-05-07T11:19:49;14.27;;;5.60;;
60211;SDS011;46079;48.686;15.598;2023-05-07T11:24:56;17.23;;;6.93;;
60211;SDS011;46079;48.686;15.598;2023-05-07T11:27:25;16.15;;;6.07;;
60211;SDS011;46079;48.686;15.598;2023-05-07T11:29:51;13.93;;;5.78;;
60211;SDS011;46079;48.686;15.598;2023-05-07T11:32:27;13.15;;;5.50;;
60211;SDS011;46079;48.686;15.598;2023-05-07T11:34:54;14.27;;;6.07;;
60211;SDS011;46079;48.686;15.598;2023-05-07T11:37:20;15.20;;;5.75;;
60211;SDS011;46079;48.686;15.598;2023-05-07T11:39:47;14.20;;;5.90;;
60211;SDS011;46079;48.686;15.598;2023-05-07T11:42:28;14.27;;;6.43;;
60211;SDS011;46079;48.686;15.598;2023-05-07T11:44:56;13.10;;;5.60;;
60211;SDS011;46079;48.686;15.598;2023-05-07T11:47:22;14.35;;;6.32;;
60211;SDS011;46079;48.686;15.598;2023-05-07T11:49:48;12.73;;;5.45;;
60211;SDS011;46079;48.686;15.598;2023-05-07T11:52:14;12.73;;;5.95;;
60211;SDS011;46079;48.686;15.598;2023-05-07T11:54:40;13.73;;;5.93;;
60211;SDS011;46079;48.686;15.598;2023-05-07T11:57:06;13.25;;;5.72;;
60211;SDS011;46079;48.686;15.598;2023-05-07T11:59:41;13.48;;;5.90;;
60211;SDS011;46079;48.686;15.598;2023-05-07T12:02:09;13.82;;;6.22;;
60211;SDS011;46079;48.686;15.598;2023-05-07T12:04:34;13.95;;;5.43;;
60211;SDS011;46079;48.686;15.598;2023-05-07T12:07:00;13.57;;;6.32;;
60211;SDS011;46079;48.686;15.598;2023-05-07T12:09:26;12.45;;;5.35;;
60211;SDS011;46079;48.686;15.598;2023-05-07T12:11:52;14.95;;;6.05;;
60211;SDS011;46079;48.686;15.598;2023-05-07T12:14:18;13.15;;;5.97;;
60211;SDS011;46079;48.686;15.598;2023-05-07T12:16:45;15.38;;;5.55;;
60211;SDS011;46079;48.686;15.598;2023-05-07T12:19:10;13.02;;;5.50;;
60211;SDS011;46079;48.686;15.598;2023-05-07T12:21:39;12.10;;;5.53;;
60211;SDS011;46079;48.686;15.598;2023-05-07T12:24:05;11.90;;;5.38;;
60211;SDS011;46079;48.686;15.598;2023-05-07T12:26:31;15.13;;;5.57;;
60211;SDS011;46079;48.686;15.598;2023-05-07T12:28:57;12.85;;;6.07;;
60211;SDS011;46079;48.686;15.598;2023-05-07T12:31:23;13.15;;;6.05;;
60211;SDS011;46079;48.686;15.598;2023-05-07T12:33:51;13.82;;;5.78;;
60211;SDS011;46079;48.686;15.598;2023-05-07T12:36:16;13.88;;;5.57;;
60211;SDS011;46079;48.686;15.598;2023-05-07T12:38:44;14.38;;;5.88;;
60211;SDS011;46079;48.686;15.598;2023-05-07T12:41:10;15.10;;;5.03;;
60211;SDS011;46079;48.686;15.598;2023-05-07T12:43:37;11.90;;;5.18;;
60211;SDS011;46079;48.686;15.598;2023-05-07T12:46:04;12.95;;;5.70;;
60211;SDS011;46079;48.686;15.598;2023-05-07T12:48:31;14.02;;;5.90;;
60211;SDS011;46079;48.686;15.598;2023-05-07T12:50:57;14.52;;;5.50;;
60211;SDS011;46079;48.686;15.598;2023-05-07T12:53:25;13.48;;;6.10;;
60211;SDS011;46079;48.686;15.598;2023-05-07T12:55:55;13.10;;;5.63;;
60211;SDS011;46079;48.686;15.598;2023-05-07T12:58:25;13.43;;;5.88;;
60211;SDS011;46079;48.686;15.598;2023-05-07T13:00:53;13.25;;;6.07;;
60211;SDS011;46079;48.686;15.598;2023-05-07T13:05:52;12.63;;;5.55;;
60211;SDS011;46079;48.686;15.598;2023-05-07T13:08:26;12.48;;;5.35;;
60211;SDS011;46079;48.686;15.598;2023-05-07T13:10:52;12.43;;;5.85;;
60211;SDS011;46079;48.686;15.598;2023-05-07T13:13:18;12.30;;;5.50;;
60211;SDS011;46079;48.686;15.598;2023-05-07T13:15:45;10.75;;;4.88;;
60211;SDS011;46079;48.686;15.598;2023-05-07T13:18:11;12.20;;;5.40;;
60211;SDS011;46079;48.686;15.598;2023-05-07T13:20:36;12.80;;;5.43;;
60211;SDS011;46079;48.686;15.598;2023-05-07T13:23:01;12.10;;;5.47;;
60211;SDS011;46079;48.686;15.598;2023-05-07T13:25:29;13.45;;;5.90;;
60211;SDS011;46079;48.686;15.598;2023-05-07T13:27:54;13.77;;;5.80;;
60211;SDS011;46079;48.686;15.598;2023-05-07T13:30:20;12.23;;;5.32;;
60211;SDS011;46079;48.686;15.598;2023-05-07T13:32:48;14.00;;;5.80;;
60211;SDS011;46079;48.686;15.598;2023-05-07T13:35:14;12.30;;;5.07;;
60211;SDS011;46079;48.686;15.598;2023-05-07T13:37:40;11.48;;;5.18;;
60211;SDS011;46079;48.686;15.598;2023-05-07T13:40:06;12.05;;;5.47;;
60211;SDS011;46079;48.686;15.598;2023-05-07T13:42:32;13.60;;;5.72;;
60211;SDS011;46079;48.686;15.598;2023-05-07T13:44:57;12.45;;;5.57;;
60211;SDS011;46079;48.686;15.598;2023-05-07T13:47:23;11.02;;;5.00;;
60211;SDS011;46079;48.686;15.598;2023-05-07T13:49:48;11.95;;;5.00;;
60211;SDS011;46079;48.686;15.598;2023-05-07T13:52:17;12.73;;;4.70;;
60211;SDS011;46079;48.686;15.598;2023-05-07T13:54:42;13.40;;;5.30;;
60211;SDS011;46079;48.686;15.598;2023-05-07T13:57:08;11.13;;;5.00;;
60211;SDS011;46079;48.686;15.598;2023-05-07T13:59:33;11.35;;;5.07;;
60211;SDS011;46079;48.686;15.598;2023-05-07T14:02:01;10.75;;;4.82;;
60211;SDS011;46079;48.686;15.598;2023-05-07T14:04:27;12.55;;;5.47;;
60211;SDS011;46079;48.686;15.598;2023-05-07T14:06:52;12.38;;;4.72;;
60211;SDS011;46079;48.686;15.598;2023-05-07T14:09:18;11.70;;;5.07;;
60211;SDS011;46079;48.686;15.598;2023-05-07T14:11:43;11.05;;;4.95;;
60211;SDS011;46079;48.686;15.598;2023-05-07T14:14:08;12.02;;;5.32;;
60211;SDS011;46079;48.686;15.598;2023-05-07T14:16:37;11.55;;;5.65;;
60211;SDS011;46079;48.686;15.598;2023-05-07T14:19:02;10.55;;;4.80;;
60211;SDS011;46079;48.686;15.598;2023-05-07T14:21:37;11.60;;;5.15;;
60211;SDS011;46079;48.686;15.598;2023-05-07T14:24:03;11.30;;;4.53;;
60211;SDS011;46079;48.686;15.598;2023-05-07T14:26:28;10.25;;;4.90;;
60211;SDS011;46079;48.686;15.598;2023-05-07T14:28:54;11.73;;;5.03;;
60211;SDS011;46079;48.686;15.598;2023-05-07T14:31:22;11.48;;;4.90;;
60211;SDS011;46079;48.686;15.598;2023-05-07T14:33:48;10.85;;;4.68;;
60211;SDS011;46079;48.686;15.598;2023-05-07T14:36:15;11.10;;;4.75;;
60211;SDS011;46079;48.686;15.598;2023-05-07T14:38:40;11.68;;;5.35;;
60211;SDS011;46079;48.686;15.598;2023-05-07T14:41:06;10.43;;;4.53;;
60211;SDS011;46079;48.686;15.598;2023-05-07T14:43:31;10.82;;;4.97;;
60211;SDS011;46079;48.686;15.598;2023-05-07T14:45:56;12.57;;;5.30;;
60211;SDS011;46079;48.686;15.598;2023-05-07T14:48:22;10.13;;;4.68;;
60211;SDS011;46079;48.686;15.598;2023-05-07T14:50:47;10.63;;;4.65;;
60211;SDS011;46079;48.686;15.598;2023-05-07T14:53:13;9.30;;;4.65;;